Time;durP1;ratioP1;P1;durP2;ratioP2;P2;SDS_P1;SDS_P2;PMS_P1;PMS_P2;Temp;Humidity;BMP_temperature;BMP_pressure;BME280_temperature;BME280_humidity;BME280_pressure;Samples;Min_cycle;Max_cycle;Signal;HPM_P1;HPM_P2
2023/01/11 00:01:52;;;;;;;1.17;1.05;;;19.70;58.60;;;;;;4978576;28;20216;-66
2023/01/11 00:04:19;;;;;;;1.27;1.10;;;19.70;58.60;;;;;;5004982;28;20192;-66
2023/01/11 00:06:45;;;;;;;1.20;1.10;;;19.70;58.60;;;;;;5002843;28;20243;-66
2023/01/11 00:09:12;;;;;;;1.60;1.10;;;19.70;58.60;;;;;;5002221;28;20690;-66
2023/01/11 00:11:37;;;;;;;1.30;1.20;;;19.70;58.70;;;;;;4998441;28;20184;-66
2023/01/11 00:14:03;;;;;;;2.90;1.45;;;19.70;58.60;;;;;;5008055;28;20616;-66
2023/01/11 00:16:29;;;;;;;1.63;1.30;;;19.70;58.60;;;;;;5004935;28;20246;-66
2023/01/11 00:18:55;;;;;;;1.25;0.90;;;19.70;58.60;;;;;;4989610;28;20184;-66
2023/01/11 00:21:21;;;;;;;1.63;1.20;;;19.70;58.70;;;;;;4996387;28;20204;-66
2023/01/11 00:23:48;;;;;;;1.70;1.10;;;19.70;58.70;;;;;;4995286;28;20204;-67
2023/01/11 00:26:15;;;;;;;1.23;1.13;;;19.70;58.60;;;;;;4993809;28;20212;-67
2023/01/11 00:28:41;;;;;;;1.10;1.00;;;19.70;58.70;;;;;;5006049;28;20195;-66
2023/01/11 00:31:07;;;;;;;1.10;1.00;;;19.70;58.70;;;;;;4997129;28;20189;-66
2023/01/11 00:33:33;;;;;;;1.30;1.20;;;19.70;58.70;;;;;;4996951;28;20216;-66
2023/01/11 00:35:59;;;;;;;1.45;1.00;;;19.70;58.60;;;;;;4990800;28;20232;-66
2023/01/11 00:38:45;;;;;;;2.05;1.48;;;19.70;58.70;;;;;;5002968;28;20189;-66
2023/01/11 00:49:30;;;;;;;1.70;1.20;;;19.70;58.60;;;;;;5001630;28;20272;-66
2023/01/11 00:51:56;;;;;;;1.52;1.15;;;19.70;58.70;;;;;;4993905;28;20195;-66
2023/01/11 00:54:21;;;;;;;1.67;1.02;;;19.70;58.60;;;;;;5011072;28;20188;-66
2023/01/11 00:56:47;;;;;;;1.60;1.20;;;19.70;58.60;;;;;;4988919;28;20226;-67
2023/01/11 00:59:13;;;;;;;2.13;1.50;;;19.70;58.60;;;;;;4996747;28;20683;-67
2023/01/11 01:01:39;;;;;;;1.80;1.50;;;19.70;58.70;;;;;;5001943;28;20189;-67
2023/01/11 01:04:05;;;;;;;2.17;1.25;;;19.70;58.70;;;;;;4977250;28;20209;-66
2023/01/11 01:06:30;;;;;;;2.88;1.45;;;19.70;58.60;;;;;;5003181;28;20212;-67
2023/01/11 01:08:56;;;;;;;1.70;1.60;;;19.70;58.60;;;;;;5007126;28;20553;-67
2023/01/11 01:11:23;;;;;;;2.10;1.40;;;19.70;59.20;;;;;;4996883;28;20185;-66
2023/01/11 01:16:33;;;;;;;2.22;1.20;;;19.70;58.60;;;;;;5000326;28;20218;-67
2023/01/11 01:18:59;;;;;;;2.53;1.42;;;19.80;58.70;;;;;;5001132;28;20208;-67
2023/01/11 01:21:26;;;;;;;1.90;1.50;;;19.70;58.60;;;;;;4976780;28;20646;-67
2023/01/11 01:23:53;;;;;;;1.35;1.10;;;19.80;58.70;;;;;;4973867;28;20297;-67
2023/01/11 01:26:19;;;;;;;2.75;1.70;;;19.70;58.60;;;;;;4992727;28;20239;-67
2023/01/11 01:28:45;;;;;;;2.00;1.33;;;19.70;58.60;;;;;;4984645;28;20216;-67
2023/01/11 01:31:12;;;;;;;1.42;1.20;;;19.70;58.60;;;;;;4980011;28;20181;-67
2023/01/11 01:33:38;;;;;;;1.30;1.00;;;19.70;58.60;;;;;;4992692;28;20577;-67
2023/01/11 01:36:04;;;;;;;2.00;1.23;;;19.70;58.60;;;;;;5007373;28;20646;-66
2023/01/11 01:38:30;;;;;;;2.58;1.45;;;19.70;58.60;;;;;;4977667;28;20200;-67
2023/01/11 01:40:56;;;;;;;1.58;1.30;;;19.70;58.60;;;;;;4992853;28;20201;-67
2023/01/11 01:43:47;;;;;;;1.40;1.30;;;19.70;58.70;;;;;;4999648;28;20299;-66
2023/01/11 01:46:14;;;;;;;1.90;1.13;;;19.70;58.60;;;;;;4976444;28;20200;-67
2023/01/11 01:48:42;;;;;;;1.60;1.38;;;19.70;58.70;;;;;;4995689;28;20219;-67
2023/01/11 01:51:13;;;;;;;1.95;1.30;;;19.70;58.70;;;;;;5006410;28;20235;-67
2023/01/11 01:53:47;;;;;;;1.95;1.20;;;19.70;58.60;;;;;;4992783;28;20193;-66
2023/01/11 01:56:32;;;;;;;1.40;1.30;;;19.70;58.60;;;;;;4984586;28;20192;-67
2023/01/11 01:59:12;;;;;;;2.10;1.10;;;19.70;58.60;;;;;;5001735;28;20188;-67
2023/01/11 02:01:48;;;;;;;1.60;1.00;;;19.80;58.80;;;;;;4997052;28;20226;-67
2023/01/11 02:04:32;;;;;;;1.58;1.30;;;19.70;58.70;;;;;;4988359;28;20184;-67
2023/01/11 02:07:14;;;;;;;2.22;1.13;;;19.70;58.70;;;;;;5000305;28;20216;-67
2023/01/11 02:10:27;;;;;;;1.55;1.00;;;19.70;58.70;;;;;;4991964;28;20219;-67
2023/01/11 02:13:08;;;;;;;1.50;0.95;;;19.70;58.70;;;;;;4958811;28;20238;-67
2023/01/11 02:15:36;;;;;;;1.23;1.10;;;19.70;58.70;;;;;;4982940;28;20202;-67
2023/01/11 02:18:02;;;;;;;2.20;1.10;;;19.70;58.60;;;;;;4967639;28;20220;-67
2023/01/11 02:20:56;;;;;;;1.55;1.00;;;19.70;58.60;;;;;;4975628;28;20647;-66
2023/01/11 02:23:53;;;;;;;2.17;1.00;;;19.70;58.60;;;;;;5003647;28;20330;-67
2023/01/11 02:26:21;;;;;;;1.90;0.82;;;19.80;58.80;;;;;;5011237;28;20306;-66
2023/01/11 02:29:17;;;;;;;1.73;0.95;;;19.80;58.70;;;;;;4983685;28;20279;-66
2023/01/11 02:32:29;;;;;;;4.85;1.45;;;19.70;58.70;;;;;;5003198;28;20271;-67
2023/01/11 02:35:24;;;;;;;1.73;0.98;;;19.80;58.80;;;;;;4997928;28;20196;-66
2023/01/11 02:38:20;;;;;;;1.10;0.85;;;19.70;58.70;;;;;;4981250;28;20420;-66
2023/01/11 02:41:06;;;;;;;1.40;0.90;;;19.70;58.70;;;;;;4987558;28;20660;-66
2023/01/11 02:46:57;;;;;;;1.45;1.08;;;19.70;58.60;;;;;;4995489;28;20218;-67
2023/01/11 02:49:41;;;;;;;1.33;1.00;;;19.70;58.70;;;;;;4995894;28;20185;-66
2023/01/11 02:52:23;;;;;;;1.02;0.90;;;19.70;58.70;;;;;;4988853;28;20192;-67
2023/01/11 02:54:57;;;;;;;1.00;0.90;;;19.80;58.70;;;;;;5000713;28;20223;-67
2023/01/11 02:57:28;;;;;;;1.00;0.85;;;19.70;58.70;;;;;;5007600;28;20236;-67
2023/01/11 02:59:56;;;;;;;1.02;0.90;;;19.70;58.70;;;;;;4979618;28;20187;-67
2023/01/11 03:02:23;;;;;;;0.95;0.93;;;19.80;58.80;;;;;;5002710;28;20204;-66
2023/01/11 03:04:49;;;;;;;1.55;1.20;;;19.70;58.60;;;;;;4982747;28;20232;-66
2023/01/11 03:07:41;;;;;;;1.65;1.08;;;19.80;58.80;;;;;;4999939;28;20231;-67
2023/01/11 03:10:27;;;;;;;1.35;0.90;;;19.80;58.80;;;;;;4969895;28;20239;-66
2023/01/11 03:13:27;;;;;;;0.93;0.90;;;19.80;58.80;;;;;;4983228;28;20200;-67
2023/01/11 03:16:14;;;;;;;1.48;0.85;;;19.80;58.80;;;;;;4979613;28;20199;-67
2023/01/11 03:19:00;;;;;;;2.35;1.10;;;19.80;58.70;;;;;;5002504;28;20200;-67
2023/01/11 03:22:17;;;;;;;2.35;1.23;;;19.80;58.70;;;;;;4975688;28;20189;-67
2023/01/11 03:24:51;;;;;;;0.80;0.80;;;19.80;58.80;;;;;;4993968;28;20232;-67
2023/01/11 03:27:52;;;;;;;0.73;0.65;;;19.80;58.80;;;;;;4995172;28;20220;-67
2023/01/11 03:30:48;;;;;;;1.15;0.80;;;19.80;58.80;;;;;;5008171;28;20190;-67
2023/01/11 03:33:35;;;;;;;2.17;0.98;;;19.70;58.60;;;;;;4994996;28;20720;-67
2023/01/11 03:36:23;;;;;;;1.10;1.00;;;19.80;58.80;;;;;;4973842;28;20258;-66
2023/01/11 03:39:21;;;;;;;1.13;0.80;;;19.80;58.80;;;;;;4987835;28;20194;-67
2023/01/11 03:41:51;;;;;;;1.20;0.80;;;19.80;58.80;;;;;;4991194;28;20251;-66
2023/01/11 03:44:21;;;;;;;1.08;0.90;;;19.80;58.80;;;;;;4979747;28;20205;-67
2023/01/11 03:46:53;;;;;;;0.70;0.70;;;19.80;58.80;;;;;;4986270;28;20619;-67
2023/01/11 03:49:38;;;;;;;1.20;1.10;;;19.80;58.70;;;;;;4975429;28;20181;-67
2023/01/11 03:52:08;;;;;;;0.93;0.90;;;19.80;58.70;;;;;;4983053;28;20189;-67
2023/01/11 03:54:35;;;;;;;1.75;0.95;;;19.80;58.80;;;;;;4983052;28;20199;-67
2023/01/11 03:57:09;;;;;;;1.13;0.90;;;19.80;58.80;;;;;;4983125;28;20304;-66
2023/01/11 03:59:35;;;;;;;1.48;0.85;;;19.80;58.80;;;;;;4990989;28;20199;-67
2023/01/11 04:02:01;;;;;;;1.15;0.80;;;19.80;58.80;;;;;;5004068;28;20214;-66
2023/01/11 04:04:27;;;;;;;1.20;1.05;;;19.80;58.80;;;;;;5001989;28;20238;-66
2023/01/11 04:06:53;;;;;;;1.10;0.93;;;19.80;58.80;;;;;;4982396;28;20213;-67
2023/01/11 04:09:19;;;;;;;2.15;1.00;;;19.80;58.80;;;;;;4982938;28;20548;-67
2023/01/11 04:11:45;;;;;;;1.27;0.93;;;19.70;58.80;;;;;;4977773;28;20208;-65
2023/01/11 04:14:10;;;;;;;0.98;0.82;;;19.80;58.80;;;;;;4992101;28;20576;-67
2023/01/11 04:16:36;;;;;;;0.82;0.77;;;19.80;58.80;;;;;;5004098;28;20212;-67
2023/01/11 04:19:02;;;;;;;1.55;0.90;;;19.80;58.80;;;;;;5000487;28;20653;-67
2023/01/11 04:21:28;;;;;;;1.42;1.05;;;19.80;58.80;;;;;;4986385;28;20200;-67
2023/01/11 04:23:54;;;;;;;1.10;0.90;;;19.80;58.80;;;;;;4995407;28;20205;-67
2023/01/11 04:28:51;;;;;;;1.83;0.95;;;19.80;58.80;;;;;;4940861;29;20226;-70
2023/01/11 04:31:16;;;;;;;1.45;1.02;;;19.80;58.80;;;;;;4933214;29;20184;-70
2023/01/11 04:33:42;;;;;;;1.42;1.00;;;19.80;58.80;;;;;;4936457;29;20226;-70
2023/01/11 04:36:10;;;;;;;0.95;0.85;;;19.80;58.80;;;;;;4936195;29;20191;-70
2023/01/11 04:38:36;;;;;;;1.23;0.90;;;19.80;58.80;;;;;;4954885;29;20222;-70
2023/01/11 04:43:47;;;;;;;0.70;0.70;;;19.80;58.80;;;;;;4956493;28;20325;-70
2023/01/11 04:46:12;;;;;;;0.90;0.90;;;19.80;58.80;;;;;;4955444;29;20695;-70
2023/01/11 04:48:40;;;;;;;0.90;0.80;;;19.80;58.80;;;;;;4955987;28;20210;-70
2023/01/11 04:51:07;;;;;;;1.83;0.95;;;19.80;58.80;;;;;;4939032;29;20187;-70
2023/01/11 04:53:34;;;;;;;0.70;0.70;;;19.80;58.80;;;;;;4956098;28;20200;-70
2023/01/11 04:56:05;;;;;;;0.90;0.80;;;19.80;58.80;;;;;;4956192;28;20187;-70
2023/01/11 04:58:34;;;;;;;1.08;0.88;;;19.80;58.80;;;;;;4955691;28;20217;-70
2023/01/11 05:01:06;;;;;;;0.90;0.90;;;19.80;58.80;;;;;;4951775;28;20195;-70
2023/01/11 05:03:32;;;;;;;1.15;0.90;;;19.80;58.80;;;;;;4952332;29;20306;-70
2023/01/11 05:05:59;;;;;;;1.30;0.80;;;19.80;58.80;;;;;;4955982;28;20195;-70
2023/01/11 05:08:27;;;;;;;0.80;0.80;;;19.80;58.80;;;;;;4954850;28;20212;-70
2023/01/11 05:10:59;;;;;;;0.95;0.80;;;19.80;58.80;;;;;;4955150;28;20186;-70
2023/01/11 05:13:40;;;;;;;0.68;0.68;;;19.80;58.80;;;;;;4935862;29;20200;-70
2023/01/11 05:16:17;;;;;;;1.00;0.90;;;19.80;58.80;;;;;;4949668;29;20246;-70
2023/01/11 05:18:53;;;;;;;2.05;0.90;;;19.80;58.80;;;;;;4954477;29;20264;-71
2023/01/11 05:21:30;;;;;;;1.38;0.82;;;19.80;58.80;;;;;;4938835;29;20194;-70
2023/01/11 05:23:59;;;;;;;2.75;0.77;;;19.80;58.80;;;;;;4954478;29;20695;-70
2023/01/11 05:26:31;;;;;;;0.70;0.70;;;19.80;58.80;;;;;;4954291;29;20186;-71
2023/01/11 05:29:06;;;;;;;1.63;1.00;;;19.80;58.80;;;;;;4943931;28;20198;-70
2023/01/11 05:31:36;;;;;;;1.08;0.90;;;19.80;58.80;;;;;;4959339;28;20199;-70
2023/01/11 05:34:03;;;;;;;0.98;0.80;;;19.80;58.80;;;;;;4954121;29;20245;-70
2023/01/11 05:36:29;;;;;;;1.25;1.00;;;19.80;58.90;;;;;;4954335;29;20202;-70
2023/01/11 05:38:56;;;;;;;0.88;0.88;;;19.80;58.80;;;;;;4953979;29;20672;-70
2023/01/11 05:41:24;;;;;;;0.70;0.70;;;19.80;58.80;;;;;;4938253;29;20222;-70
2023/01/11 05:46:39;;;;;;;1.00;0.73;;;19.80;58.80;;;;;;4955153;28;20212;-70
2023/01/11 05:49:06;;;;;;;1.27;1.00;;;19.80;58.90;;;;;;4938019;29;20191;-70
2023/01/11 05:51:32;;;;;;;1.02;0.70;;;19.80;58.90;;;;;;4937966;29;20244;-70
2023/01/11 05:54:01;;;;;;;1.30;1.20;;;19.80;58.90;;;;;;4950716;28;20187;-70
2023/01/11 05:56:27;;;;;;;1.02;0.80;;;19.80;58.90;;;;;;4934379;29;20222;-71
2023/01/11 05:58:53;;;;;;;0.77;0.77;;;19.80;58.90;;;;;;4953835;29;20237;-70
2023/01/11 06:01:21;;;;;;;1.85;0.90;;;19.80;58.90;;;;;;4953843;29;20198;-70
2023/01/11 06:03:48;;;;;;;0.93;0.85;;;19.80;58.90;;;;;;4954696;28;20222;-70
2023/01/11 06:06:15;;;;;;;0.93;0.90;;;19.80;58.90;;;;;;4954848;28;20194;-70
2023/01/11 06:08:41;;;;;;;1.13;1.00;;;19.80;58.90;;;;;;4937377;29;20214;-70
2023/01/11 06:11:07;;;;;;;1.05;0.70;;;19.80;58.90;;;;;;4953195;28;20186;-70
2023/01/11 06:13:33;;;;;;;1.05;0.80;;;19.80;58.90;;;;;;4952066;29;20277;-70
2023/01/11 06:16:02;;;;;;;1.08;0.90;;;19.80;59.50;;;;;;4961123;28;20269;-70
2023/01/11 06:18:34;;;;;;;1.17;0.88;;;19.80;58.90;;;;;;4949459;28;20215;-70
2023/01/11 06:21:00;;;;;;;1.00;0.75;;;19.80;58.90;;;;;;4945474;29;20194;-70
2023/01/11 06:23:29;;;;;;;2.03;0.95;;;19.80;58.90;;;;;;4949451;28;20219;-70
2023/01/11 06:25:55;;;;;;;0.70;0.70;;;19.80;58.90;;;;;;4952604;29;20197;-70
2023/01/11 06:28:22;;;;;;;1.15;0.93;;;19.80;58.90;;;;;;4957346;28;20317;-70
2023/01/11 06:30:53;;;;;;;0.77;0.73;;;19.80;58.90;;;;;;4935683;29;20285;-70
2023/01/11 06:33:21;;;;;;;0.63;0.63;;;19.80;58.90;;;;;;4961008;28;20194;-70
2023/01/11 06:35:47;;;;;;;1.13;0.93;;;19.80;58.90;;;;;;4952349;29;20194;-70
2023/01/11 06:38:15;;;;;;;0.60;0.60;;;19.80;59.00;;;;;;4936297;29;20202;-70
2023/01/11 06:40:42;;;;;;;0.82;0.80;;;19.80;59.00;;;;;;4950455;29;20211;-70
2023/01/11 06:43:09;;;;;;;1.30;0.82;;;19.80;59.00;;;;;;4936788;29;20214;-70
2023/01/11 06:45:38;;;;;;;0.60;0.60;;;19.80;59.00;;;;;;4936374;29;20190;-70
2023/01/11 06:48:04;;;;;;;2.15;0.85;;;19.80;59.00;;;;;;4949149;28;20218;-70
2023/01/11 06:50:31;;;;;;;1.05;0.65;;;19.80;59.00;;;;;;4945438;29;20192;-70
2023/01/11 06:53:00;;;;;;;0.80;0.80;;;19.80;59.00;;;;;;4952063;28;20201;-70
2023/01/11 06:55:28;;;;;;;1.40;0.85;;;19.80;59.00;;;;;;4936691;29;20198;-70
2023/01/11 06:57:54;;;;;;;0.80;0.80;;;19.80;59.00;;;;;;4951566;29;20224;-70
2023/01/11 07:00:20;;;;;;;0.82;0.70;;;19.80;59.00;;;;;;4953492;28;20186;-70
2023/01/11 07:02:47;;;;;;;0.68;0.60;;;19.80;59.00;;;;;;4952020;29;20253;-70
2023/01/11 07:05:14;;;;;;;0.85;0.70;;;19.80;58.90;;;;;;4949008;28;20251;-70
2023/01/11 07:07:41;;;;;;;1.00;0.80;;;19.80;58.90;;;;;;4931600;29;20215;-70
2023/01/11 07:10:11;;;;;;;1.10;0.95;;;19.80;58.90;;;;;;4951765;29;20197;-70
2023/01/11 07:12:37;;;;;;;1.52;0.70;;;19.80;58.90;;;;;;4935598;29;20198;-70
2023/01/11 07:15:05;;;;;;;0.95;0.85;;;19.80;58.90;;;;;;4948702;29;20195;-70
2023/01/11 07:17:32;;;;;;;1.08;0.90;;;19.80;59.00;;;;;;4948061;29;20277;-70
2023/01/11 07:19:58;;;;;;;1.73;0.70;;;19.80;59.00;;;;;;4950425;29;20281;-70
2023/01/11 07:22:24;;;;;;;1.00;0.70;;;19.80;59.00;;;;;;4953562;28;20288;-70
2023/01/11 07:24:50;;;;;;;0.82;0.70;;;19.80;59.00;;;;;;4952083;28;20195;-71
2023/01/11 07:27:19;;;;;;;0.82;0.70;;;19.80;59.00;;;;;;4948969;28;20287;-70
2023/01/11 07:29:45;;;;;;;0.88;0.73;;;19.80;59.00;;;;;;4950838;29;20194;-70
2023/01/11 07:32:11;;;;;;;1.08;0.90;;;19.80;59.00;;;;;;4936234;29;20657;-70
2023/01/11 07:34:37;;;;;;;1.08;0.90;;;19.80;59.00;;;;;;4952109;29;20198;-70
2023/01/11 07:37:03;;;;;;;0.93;0.82;;;19.80;59.00;;;;;;4936252;29;20214;-70
2023/01/11 07:39:29;;;;;;;0.93;0.73;;;19.80;59.00;;;;;;4936100;28;20191;-70
2023/01/11 07:44:39;;;;;;;1.70;0.90;;;19.80;59.00;;;;;;4953116;28;20206;-70
2023/01/11 07:47:05;;;;;;;1.10;0.70;;;19.90;59.00;;;;;;4955959;28;20201;-70
2023/01/11 07:49:31;;;;;;;1.00;0.80;;;19.80;59.00;;;;;;4939572;29;20190;-70
2023/01/11 07:51:57;;;;;;;0.70;0.70;;;19.80;59.00;;;;;;4939627;29;20198;-70
2023/01/11 07:54:23;;;;;;;0.90;0.90;;;19.80;58.90;;;;;;4952664;28;20189;-70
2023/01/11 07:56:50;;;;;;;0.63;0.60;;;19.90;59.00;;;;;;4953788;29;20214;-70
2023/01/11 07:59:16;;;;;;;1.17;0.85;;;19.80;59.00;;;;;;4939291;29;20183;-70
2023/01/11 08:01:42;;;;;;;1.77;0.73;;;19.90;59.00;;;;;;4939528;29;20286;-70
2023/01/11 08:04:11;;;;;;;1.02;0.80;;;19.90;59.60;;;;;;4936282;29;20293;-70
2023/01/11 08:06:38;;;;;;;0.98;0.90;;;19.90;59.10;;;;;;4952059;29;20200;-70
2023/01/11 08:09:04;;;;;;;1.45;0.90;;;19.80;59.00;;;;;;4947620;29;20190;-70
2023/01/11 08:16:59;;;;;;;1.85;1.20;;;19.90;59.10;;;;;;4960852;28;20285;-70
2023/01/11 08:19:25;;;;;;;1.00;0.90;;;19.90;59.10;;;;;;4951846;29;20294;-70
2023/01/11 08:21:51;;;;;;;1.80;1.17;;;19.80;58.90;;;;;;4953823;29;20690;-70
2023/01/11 08:24:17;;;;;;;1.08;0.98;;;19.90;59.00;;;;;;4936170;29;20222;-70
2023/01/11 08:26:43;;;;;;;2.42;0.98;;;19.90;59.00;;;;;;4952016;29;20187;-70
2023/01/11 08:29:09;;;;;;;1.58;1.05;;;19.90;59.10;;;;;;4955554;28;20278;-70
2023/01/11 08:31:34;;;;;;;1.90;1.20;;;19.80;58.90;;;;;;4935983;29;20294;-70
2023/01/11 08:34:00;;;;;;;1.50;0.73;;;19.90;59.10;;;;;;4937023;29;20293;-70
2023/01/11 08:36:26;;;;;;;1.95;1.00;;;19.90;59.00;;;;;;4954947;29;20194;-70
2023/01/11 08:38:56;;;;;;;1.23;0.95;;;19.80;59.00;;;;;;4954086;28;20190;-70
2023/01/11 08:41:23;;;;;;;1.17;0.98;;;19.90;59.00;;;;;;4954939;29;20187;-70
2023/01/11 08:43:49;;;;;;;1.42;0.80;;;19.90;59.00;;;;;;4954713;28;20218;-70
2023/01/11 08:46:17;;;;;;;0.88;0.88;;;19.90;59.00;;;;;;4935527;29;20192;-70
2023/01/11 08:48:43;;;;;;;2.03;1.00;;;19.90;59.10;;;;;;4948492;29;20266;-70
2023/01/11 08:51:09;;;;;;;0.80;0.80;;;19.90;59.00;;;;;;4955549;28;20273;-70
2023/01/11 08:53:35;;;;;;;0.80;0.80;;;19.90;59.00;;;;;;4938600;29;20191;-70
2023/01/11 08:56:01;;;;;;;1.10;1.00;;;19.90;59.00;;;;;;4954678;29;20202;-70
2023/01/11 08:58:27;;;;;;;1.15;0.70;;;19.90;59.00;;;;;;4954159;28;20214;-70
2023/01/11 09:00:56;;;;;;;1.10;0.98;;;19.90;59.10;;;;;;4938601;29;20194;-70
2023/01/11 09:03:22;;;;;;;1.08;1.00;;;19.90;59.10;;;;;;4951371;28;20199;-70
2023/01/11 09:05:47;;;;;;;1.38;1.25;;;19.90;59.00;;;;;;4935881;29;20584;-70
2023/01/11 09:08:13;;;;;;;1.75;0.93;;;19.90;59.00;;;;;;4950975;29;20217;-70
2023/01/11 09:10:39;;;;;;;1.10;1.00;;;19.90;59.10;;;;;;4935097;29;20201;-70
2023/01/11 09:13:04;;;;;;;1.25;1.10;;;19.90;59.10;;;;;;4954174;29;20190;-70
2023/01/11 09:15:30;;;;;;;0.88;0.80;;;19.90;59.70;;;;;;4935239;29;20192;-70
2023/01/11 09:17:56;;;;;;;1.35;0.75;;;19.90;59.10;;;;;;4952310;29;20217;-70
2023/01/11 09:20:22;;;;;;;1.42;0.93;;;19.90;59.00;;;;;;4935057;29;20234;-71
2023/01/11 09:22:51;;;;;;;0.93;0.90;;;19.90;59.10;;;;;;4952731;29;20250;-70
2023/01/11 09:25:18;;;;;;;0.90;0.80;;;19.90;59.00;;;;;;4949832;29;20254;-70
2023/01/11 09:27:49;;;;;;;0.75;0.73;;;19.90;59.00;;;;;;4950836;29;20230;-70
2023/01/11 09:30:21;;;;;;;1.45;0.93;;;19.90;59.10;;;;;;4938142;29;20187;-70
2023/01/11 09:32:49;;;;;;;1.23;0.98;;;19.90;59.10;;;;;;4937876;29;20705;-70
2023/01/11 09:35:16;;;;;;;0.90;0.90;;;19.90;59.10;;;;;;4954097;29;20664;-70
2023/01/11 09:37:54;;;;;;;0.82;0.82;;;19.90;59.10;;;;;;4950590;28;20265;-70
2023/01/11 09:40:29;;;;;;;1.20;1.10;;;19.90;59.10;;;;;;4947652;29;20192;-70
2023/01/11 09:43:00;;;;;;;2.13;1.00;;;19.90;59.10;;;;;;4953631;29;20217;-70
2023/01/11 09:45:31;;;;;;;1.00;0.90;;;19.90;59.10;;;;;;4955063;28;20791;-70
2023/01/11 09:48:11;;;;;;;1.30;1.10;;;19.90;59.10;;;;;;4953254;29;20234;-70
2023/01/11 09:50:44;;;;;;;1.40;0.90;;;19.90;59.10;;;;;;4934445;29;20735;-70
2023/01/11 09:53:48;;;;;;;1.52;1.10;;;19.90;59.10;;;;;;4929916;29;20191;-70
2023/01/11 09:56:23;;;;;;;0.98;0.88;;;19.90;59.10;;;;;;4943328;29;20298;-70
2023/01/11 09:59:16;;;;;;;1.77;1.08;;;19.90;59.20;;;;;;4950675;29;20245;-70
2023/01/11 10:02:23;;;;;;;0.90;0.90;;;19.90;59.10;;;;;;4950211;29;20246;-70
2023/01/11 10:05:35;;;;;;;0.88;0.85;;;19.90;59.10;;;;;;4950430;29;20218;-70
2023/01/11 10:09:02;;;;;;;1.23;1.10;;;19.90;59.10;;;;;;4984028;28;20243;-70
2023/01/11 10:12:00;;;;;;;0.98;0.98;;;19.90;59.10;;;;;;4930633;29;20209;-70
2023/01/11 10:14:58;;;;;;;1.65;1.20;;;19.90;59.10;;;;;;4953162;29;20187;-70
2023/01/11 10:17:46;;;;;;;1.40;1.00;;;19.90;59.10;;;;;;4953168;29;20217;-70
2023/01/11 10:20:11;;;;;;;1.30;0.90;;;19.90;59.10;;;;;;4953094;29;20190;-70
2023/01/11 10:22:45;;;;;;;0.90;0.85;;;19.90;59.10;;;;;;4933756;29;20210;-70
2023/01/11 10:25:13;;;;;;;1.15;0.90;;;19.90;59.20;;;;;;4946275;29;20191;-70
2023/01/11 10:33:48;;;;;;;1.15;1.15;;;19.90;59.20;;;;;;4984064;28;20193;-66
2023/01/11 10:39:42;;;;;;;1.33;0.90;;;19.90;59.20;;;;;;4992445;28;20270;-65
2023/01/11 10:42:37;;;;;;;1.35;0.80;;;19.90;59.20;;;;;;4981803;28;20208;-66
2023/01/11 10:45:17;;;;;;;1.58;0.82;;;19.90;59.20;;;;;;4954559;28;20205;-66
2023/01/11 10:48:10;;;;;;;1.05;0.95;;;19.90;59.20;;;;;;4971856;28;20209;-66
2023/01/11 10:50:50;;;;;;;0.70;0.70;;;19.90;59.20;;;;;;4972168;28;20198;-67
2023/01/11 10:53:48;;;;;;;1.15;0.85;;;19.90;59.20;;;;;;4952720;29;20249;-66
2023/01/11 10:56:37;;;;;;;0.80;0.80;;;19.90;59.20;;;;;;4958689;28;20193;-66
2023/01/11 10:59:45;;;;;;;1.40;1.08;;;19.90;59.20;;;;;;4963646;28;20281;-66
2023/01/11 11:02:35;;;;;;;1.10;0.98;;;19.90;59.20;;;;;;4955481;28;20197;-66
2023/01/11 11:05:16;;;;;;;0.90;0.75;;;19.90;59.20;;;;;;4981071;28;20204;-66
2023/01/11 11:08:05;;;;;;;1.27;1.10;;;19.90;59.20;;;;;;4955460;28;20237;-66
2023/01/11 11:10:37;;;;;;;0.70;0.70;;;19.90;59.20;;;;;;4955704;28;20196;-66
2023/01/11 11:13:27;;;;;;;0.85;0.70;;;19.90;59.20;;;;;;4954140;28;20206;-66
2023/01/11 11:16:09;;;;;;;0.90;0.90;;;19.90;59.20;;;;;;4994246;28;20192;-66
2023/01/11 11:18:35;;;;;;;0.82;0.80;;;19.90;59.20;;;;;;4973227;28;20227;-66
2023/01/11 11:21:19;;;;;;;1.25;0.70;;;19.90;59.20;;;;;;4965085;28;20256;-66
2023/01/11 11:23:55;;;;;;;0.90;0.90;;;19.90;59.20;;;;;;4957904;28;20232;-66
2023/01/11 11:26:30;;;;;;;0.70;0.70;;;19.90;59.20;;;;;;4979335;28;20189;-66
2023/01/11 11:29:07;;;;;;;0.80;0.80;;;19.90;59.20;;;;;;4959085;28;20229;-66
2023/01/11 11:31:39;;;;;;;0.70;0.70;;;19.90;59.20;;;;;;4962079;28;20224;-66
2023/01/11 11:34:14;;;;;;;0.68;0.65;;;19.90;59.20;;;;;;4961896;28;20208;-66
2023/01/11 11:36:43;;;;;;;0.80;0.80;;;19.90;59.20;;;;;;4993915;28;20577;-66
2023/01/11 11:39:29;;;;;;;1.05;0.88;;;19.90;59.20;;;;;;4964534;28;20231;-66
2023/01/11 11:42:13;;;;;;;0.80;0.80;;;19.90;59.30;;;;;;4956828;28;20224;-66
2023/01/11 11:44:39;;;;;;;1.50;0.80;;;19.90;59.30;;;;;;4963395;28;20214;-66
2023/01/11 11:47:15;;;;;;;1.20;1.08;;;19.90;59.20;;;;;;4960476;28;20182;-66
2023/01/11 11:49:42;;;;;;;1.10;1.00;;;19.90;59.20;;;;;;4974869;28;20193;-67
2023/01/11 11:52:17;;;;;;;0.60;0.60;;;19.90;59.20;;;;;;4946520;28;20717;-65
2023/01/11 11:54:55;;;;;;;0.70;0.70;;;19.90;59.20;;;;;;4979817;28;20229;-66
2023/01/11 11:57:37;;;;;;;1.33;0.77;;;19.90;59.20;;;;;;4972193;28;20336;-66
2023/01/11 12:00:28;;;;;;;0.73;0.73;;;19.90;59.20;;;;;;4976279;28;20283;-67
2023/01/11 12:03:11;;;;;;;1.55;1.13;;;19.90;59.30;;;;;;4970546;28;20208;-66
2023/01/11 12:05:47;;;;;;;1.25;1.15;;;19.90;59.30;;;;;;4984758;28;20197;-66
2023/01/11 12:08:15;;;;;;;1.25;0.95;;;19.90;59.30;;;;;;4979113;28;20213;-65
2023/01/11 12:10:49;;;;;;;1.05;0.88;;;19.90;59.30;;;;;;4962053;28;20190;-66
2023/01/11 12:13:33;;;;;;;0.93;0.93;;;19.90;59.30;;;;;;4953949;28;20185;-66
2023/01/11 12:16:07;;;;;;;1.33;1.20;;;19.90;59.80;;;;;;4962691;28;20196;-66
2023/01/11 12:18:41;;;;;;;0.95;0.88;;;19.90;59.30;;;;;;4975498;28;20217;-66
2023/01/11 12:21:29;;;;;;;0.80;0.80;;;19.90;59.30;;;;;;4961122;28;20190;-67
2023/01/11 12:24:22;;;;;;;0.95;0.80;;;19.90;59.30;;;;;;4962190;28;20283;-66
2023/01/11 12:27:05;;;;;;;1.00;0.90;;;20.00;59.40;;;;;;4976898;28;20197;-66
2023/01/11 12:29:53;;;;;;;0.90;0.70;;;19.90;59.30;;;;;;4972909;28;20201;-66
2023/01/11 12:32:58;;;;;;;1.00;1.00;;;19.90;59.30;;;;;;4979537;28;20196;-66
2023/01/11 12:35:34;;;;;;;0.90;0.88;;;19.90;59.40;;;;;;4975656;28;20210;-66
2023/01/11 12:38:17;;;;;;;0.95;0.95;;;19.90;59.30;;;;;;4975539;28;20212;-66
2023/01/11 12:41:42;;;;;;;0.90;0.90;;;19.90;59.40;;;;;;4981176;28;20197;-66
2023/01/11 12:45:00;;;;;;;1.00;0.90;;;19.90;59.40;;;;;;4958476;28;20271;-66
2023/01/11 12:48:08;;;;;;;0.98;0.98;;;19.90;59.40;;;;;;4966541;28;20292;-66
2023/01/11 12:50:46;;;;;;;1.08;0.98;;;19.90;59.40;;;;;;4926875;28;20236;-66
2023/01/11 12:53:59;;;;;;;1.00;0.98;;;19.90;59.40;;;;;;4961390;28;20672;-66
2023/01/11 12:56:38;;;;;;;1.13;0.90;;;19.90;59.40;;;;;;4987282;28;20295;-66
2023/01/11 12:59:47;;;;;;;0.98;0.88;;;19.90;59.40;;;;;;4977361;28;20220;-66
2023/01/11 13:03:02;;;;;;;0.70;0.70;;;19.90;59.70;;;;;;4940960;28;20201;-67
2023/01/11 13:05:52;;;;;;;0.85;0.85;;;19.90;59.40;;;;;;4973686;28;20186;-67
2023/01/11 13:08:42;;;;;;;1.00;0.95;;;19.90;59.40;;;;;;4973137;28;20209;-67
2023/01/11 13:11:44;;;;;;;0.80;0.80;;;19.90;59.50;;;;;;4956094;28;20194;-67
2023/01/11 13:15:07;;;;;;;0.98;0.88;;;19.90;59.40;;;;;;4965846;28;20193;-66
2023/01/11 13:18:25;;;;;;;1.25;0.80;;;19.90;59.50;;;;;;4970595;28;20229;-66
2023/01/11 13:21:30;;;;;;;0.80;0.80;;;19.90;59.50;;;;;;4973348;28;20296;-66
2023/01/11 13:24:11;;;;;;;0.70;0.70;;;19.90;59.50;;;;;;4992759;28;20213;-67
2023/01/11 13:26:42;;;;;;;1.20;0.80;;;19.90;59.50;;;;;;4994010;28;20216;-66
2023/01/11 13:29:32;;;;;;;1.52;0.77;;;19.90;59.60;;;;;;4956987;28;20220;-67
2023/01/11 13:32:04;;;;;;;0.98;0.90;;;19.90;59.60;;;;;;4976390;28;20189;-67
2023/01/11 13:34:54;;;;;;;0.90;0.90;;;19.90;59.60;;;;;;4960783;28;20189;-66
2023/01/11 13:37:36;;;;;;;0.80;0.80;;;19.90;59.60;;;;;;4956994;28;20213;-67
2023/01/11 13:40:25;;;;;;;0.98;0.98;;;19.90;59.60;;;;;;4972477;28;20200;-67
2023/01/11 13:43:05;;;;;;;1.00;0.88;;;19.90;59.60;;;;;;4981580;28;20299;-67
2023/01/11 13:45:37;;;;;;;1.00;0.90;;;19.90;59.60;;;;;;4957104;28;20181;-67
2023/01/11 13:48:26;;;;;;;0.95;0.95;;;19.90;59.60;;;;;;4973887;28;20233;-67
2023/01/11 13:51:41;;;;;;;1.08;0.98;;;19.90;59.60;;;;;;4973120;28;20209;-67
2023/01/11 13:54:17;;;;;;;0.93;0.85;;;19.90;59.60;;;;;;4979873;28;20205;-66
2023/01/11 13:56:54;;;;;;;0.90;0.90;;;19.90;59.60;;;;;;4976331;28;20207;-67
2023/01/11 13:59:33;;;;;;;1.10;1.10;;;19.90;59.70;;;;;;4975860;28;20188;-66
2023/01/11 14:02:36;;;;;;;0.73;0.73;;;19.90;59.70;;;;;;4993426;28;20196;-67
2023/01/11 14:05:14;;;;;;;1.15;1.05;;;19.90;59.60;;;;;;4948944;28;20205;-67
2023/01/11 14:08:50;;;;;;;1.02;0.90;;;19.90;59.60;;;;;;4978338;28;20218;-67
2023/01/11 14:12:15;;;;;;;1.02;0.80;;;19.90;59.70;;;;;;4984015;28;20662;-67